sensor_id;sensor_type;location;lat;lon;timestamp;temperature;humidity
43858;DHT22;29507;51.284;5.758;2023-06-14T00:00:40;17.40;81.70
43858;DHT22;29507;51.284;5.758;2023-06-14T00:03:10;17.30;81.60
43858;DHT22;29507;51.284;5.758;2023-06-14T00:05:37;17.30;82.30
43858;DHT22;29507;51.284;5.758;2023-06-14T00:08:09;17.20;83.10
43858;DHT22;29507;51.284;5.758;2023-06-14T00:10:38;17.20;84.10
43858;DHT22;29507;51.284;5.758;2023-06-14T00:13:06;17.20;84.90
43858;DHT22;29507;51.284;5.758;2023-06-14T00:15:35;17.10;85.20
43858;DHT22;29507;51.284;5.758;2023-06-14T00:18:01;17.00;85.70
43858;DHT22;29507;51.284;5.758;2023-06-14T00:20:28;17.00;87.20
43858;DHT22;29507;51.284;5.758;2023-06-14T00:22:54;16.90;89.00
43858;DHT22;29507;51.284;5.758;2023-06-14T00:25:25;17.00;89.80
43858;DHT22;29507;51.284;5.758;2023-06-14T00:27:52;16.90;90.30
43858;DHT22;29507;51.284;5.758;2023-06-14T00:30:18;16.90;91.30
43858;DHT22;29507;51.284;5.758;2023-06-14T00:32:44;16.90;91.30
43858;DHT22;29507;51.284;5.758;2023-06-14T00:35:11;16.90;91.30
43858;DHT22;29507;51.284;5.758;2023-06-14T00:37:37;16.80;91.60
43858;DHT22;29507;51.284;5.758;2023-06-14T00:40:03;16.80;91.90
43858;DHT22;29507;51.284;5.758;2023-06-14T00:42:30;16.80;91.70
43858;DHT22;29507;51.284;5.758;2023-06-14T00:44:56;16.80;92.30
43858;DHT22;29507;51.284;5.758;2023-06-14T00:47:22;16.70;93.40
43858;DHT22;29507;51.284;5.758;2023-06-14T00:49:50;16.60;94.10
43858;DHT22;29507;51.284;5.758;2023-06-14T00:52:19;16.50;94.80
43858;DHT22;29507;51.284;5.758;2023-06-14T00:54:44;16.50;94.60
43858;DHT22;29507;51.284;5.758;2023-06-14T00:57:11;16.40;95.20
43858;DHT22;29507;51.284;5.758;2023-06-14T00:59:48;16.40;95.20
43858;DHT22;29507;51.284;5.758;2023-06-14T01:02:14;16.40;95.00
43858;DHT22;29507;51.284;5.758;2023-06-14T01:04:41;16.50;94.90
43858;DHT22;29507;51.284;5.758;2023-06-14T01:09:48;16.40;94.70
43858;DHT22;29507;51.284;5.758;2023-06-14T01:12:21;16.30;95.20
43858;DHT22;29507;51.284;5.758;2023-06-14T01:14:50;16.30;95.00
43858;DHT22;29507;51.284;5.758;2023-06-14T01:17:17;16.20;95.40
43858;DHT22;29507;51.284;5.758;2023-06-14T01:19:43;16.10;96.00
43858;DHT22;29507;51.284;5.758;2023-06-14T01:22:10;16.00;96.90
43858;DHT22;29507;51.284;5.758;2023-06-14T01:24:36;16.00;98.10
43858;DHT22;29507;51.284;5.758;2023-06-14T01:27:02;15.90;98.30
43858;DHT22;29507;51.284;5.758;2023-06-14T01:29:29;15.90;98.60
43858;DHT22;29507;51.284;5.758;2023-06-14T01:31:58;15.80;98.80
43858;DHT22;29507;51.284;5.758;2023-06-14T01:34:25;15.70;99.90
43858;DHT22;29507;51.284;5.758;2023-06-14T01:36:52;15.60;99.90
43858;DHT22;29507;51.284;5.758;2023-06-14T01:39:20;15.60;99.90
43858;DHT22;29507;51.284;5.758;2023-06-14T01:41:47;15.60;99.90
43858;DHT22;29507;51.284;5.758;2023-06-14T01:44:14;15.60;99.90
43858;DHT22;29507;51.284;5.758;2023-06-14T01:46:41;15.60;99.90
43858;DHT22;29507;51.284;5.758;2023-06-14T01:49:07;15.60;99.90
43858;DHT22;29507;51.284;5.758;2023-06-14T01:51:33;15.50;99.90
43858;DHT22;29507;51.284;5.758;2023-06-14T01:53:59;15.50;99.90
43858;DHT22;29507;51.284;5.758;2023-06-14T01:56:26;15.40;99.90
43858;DHT22;29507;51.284;5.758;2023-06-14T01:58:52;15.40;99.90
43858;DHT22;29507;51.284;5.758;2023-06-14T02:01:20;15.50;99.90
43858;DHT22;29507;51.284;5.758;2023-06-14T02:03:47;15.50;99.90
43858;DHT22;29507;51.284;5.758;2023-06-14T02:06:13;15.40;99.90
43858;DHT22;29507;51.284;5.758;2023-06-14T02:08:41;15.40;99.90
43858;DHT22;29507;51.284;5.758;2023-06-14T02:11:07;15.30;99.90
43858;DHT22;29507;51.284;5.758;2023-06-14T02:13:32;15.20;99.90
43858;DHT22;29507;51.284;5.758;2023-06-14T02:15:58;15.10;99.90
43858;DHT22;29507;51.284;5.758;2023-06-14T02:18:25;15.00;99.90
43858;DHT22;29507;51.284;5.758;2023-06-14T02:20:50;15.00;99.90
43858;DHT22;29507;51.284;5.758;2023-06-14T02:23:16;14.90;99.90
43858;DHT22;29507;51.284;5.758;2023-06-14T02:25:41;14.90;99.90
43858;DHT22;29507;51.284;5.758;2023-06-14T02:28:08;15.00;99.90
43858;DHT22;29507;51.284;5.758;2023-06-14T02:30:34;15.00;99.90
43858;DHT22;29507;51.284;5.758;2023-06-14T02:33:00;14.90;99.90
43858;DHT22;29507;51.284;5.758;2023-06-14T02:35:25;14.90;99.90
43858;DHT22;29507;51.284;5.758;2023-06-14T02:37:53;14.80;99.90
43858;DHT22;29507;51.284;5.758;2023-06-14T02:40:19;14.80;99.90
43858;DHT22;29507;51.284;5.758;2023-06-14T02:42:45;14.80;99.90
43858;DHT22;29507;51.284;5.758;2023-06-14T02:45:10;14.70;99.90
43858;DHT22;29507;51.284;5.758;2023-06-14T02:47:36;14.60;99.90
43858;DHT22;29507;51.284;5.758;2023-06-14T02:50:02;14.60;99.90
43858;DHT22;29507;51.284;5.758;2023-06-14T02:52:28;14.50;99.90
43858;DHT22;29507;51.284;5.758;2023-06-14T02:54:54;14.40;99.90
43858;DHT22;29507;51.284;5.758;2023-06-14T02:57:20;14.40;99.90
43858;DHT22;29507;51.284;5.758;2023-06-14T02:59:46;14.30;99.90
43858;DHT22;29507;51.284;5.758;2023-06-14T03:02:11;14.30;99.90
43858;DHT22;29507;51.284;5.758;2023-06-14T03:04:37;14.30;99.90
43858;DHT22;29507;51.284;5.758;2023-06-14T03:07:03;14.30;99.90
43858;DHT22;29507;51.284;5.758;2023-06-14T03:09:35;14.30;99.90
43858;DHT22;29507;51.284;5.758;2023-06-14T03:12:03;14.30;99.90
43858;DHT22;29507;51.284;5.758;2023-06-14T03:14:29;14.30;99.90
43858;DHT22;29507;51.284;5.758;2023-06-14T03:16:56;14.30;99.90
43858;DHT22;29507;51.284;5.758;2023-06-14T03:19:22;14.20;99.90
43858;DHT22;29507;51.284;5.758;2023-06-14T03:21:49;14.20;99.90
43858;DHT22;29507;51.284;5.758;2023-06-14T03:24:15;14.20;99.90
43858;DHT22;29507;51.284;5.758;2023-06-14T03:26:42;14.10;99.90
43858;DHT22;29507;51.284;5.758;2023-06-14T03:29:07;14.10;99.90
43858;DHT22;29507;51.284;5.758;2023-06-14T03:31:34;14.10;99.90
43858;DHT22;29507;51.284;5.758;2023-06-14T03:34:03;14.10;99.90
43858;DHT22;29507;51.284;5.758;2023-06-14T03:36:28;14.10;99.90
43858;DHT22;29507;51.284;5.758;2023-06-14T03:38:54;14.10;99.90
43858;DHT22;29507;51.284;5.758;2023-06-14T03:41:20;14.10;99.90
43858;DHT22;29507;51.284;5.758;2023-06-14T03:43:46;14.10;99.90
43858;DHT22;29507;51.284;5.758;2023-06-14T03:46:12;14.00;99.90
43858;DHT22;29507;51.284;5.758;2023-06-14T03:48:37;14.00;99.90
43858;DHT22;29507;51.284;5.758;2023-06-14T03:51:04;14.00;99.90
43858;DHT22;29507;51.284;5.758;2023-06-14T03:53:30;14.00;99.90
43858;DHT22;29507;51.284;5.758;2023-06-14T03:55:56;14.10;99.90
43858;DHT22;29507;51.284;5.758;2023-06-14T03:58:22;14.10;99.90
43858;DHT22;29507;51.284;5.758;2023-06-14T04:00:48;14.10;99.90
43858;DHT22;29507;51.284;5.758;2023-06-14T04:03:14;14.10;99.90
43858;DHT22;29507;51.284;5.758;2023-06-14T04:05:41;14.20;99.90
43858;DHT22;29507;51.284;5.758;2023-06-14T04:08:08;14.20;99.90
43858;DHT22;29507;51.284;5.758;2023-06-14T04:10:35;14.20;99.90
43858;DHT22;29507;51.284;5.758;2023-06-14T04:13:00;14.30;99.90
43858;DHT22;29507;51.284;5.758;2023-06-14T04:15:26;14.30;99.90
43858;DHT22;29507;51.284;5.758;2023-06-14T04:17:53;14.40;99.90
43858;DHT22;29507;51.284;5.758;2023-06-14T04:20:22;14.50;99.90
43858;DHT22;29507;51.284;5.758;2023-06-14T04:22:50;14.50;99.90
43858;DHT22;29507;51.284;5.758;2023-06-14T04:25:16;14.60;99.90
43858;DHT22;29507;51.284;5.758;2023-06-14T04:27:42;14.60;99.90
43858;DHT22;29507;51.284;5.758;2023-06-14T04:30:08;14.70;99.90
43858;DHT22;29507;51.284;5.758;2023-06-14T04:32:33;14.70;99.90
43858;DHT22;29507;51.284;5.758;2023-06-14T04:35:00;14.80;99.90
43858;DHT22;29507;51.284;5.758;2023-06-14T04:37:29;14.80;99.90
43858;DHT22;29507;51.284;5.758;2023-06-14T04:39:55;14.90;99.90
43858;DHT22;29507;51.284;5.758;2023-06-14T04:42:22;15.00;99.90
43858;DHT22;29507;51.284;5.758;2023-06-14T04:44:50;15.10;99.90
43858;DHT22;29507;51.284;5.758;2023-06-14T04:47:17;15.10;99.90
43858;DHT22;29507;51.284;5.758;2023-06-14T04:49:42;15.20;99.90
43858;DHT22;29507;51.284;5.758;2023-06-14T04:52:08;15.30;99.90
43858;DHT22;29507;51.284;5.758;2023-06-14T04:54:36;15.40;99.90
43858;DHT22;29507;51.284;5.758;2023-06-14T04:57:04;15.50;99.90
43858;DHT22;29507;51.284;5.758;2023-06-14T04:59:31;15.60;99.90
43858;DHT22;29507;51.284;5.758;2023-06-14T05:01:58;15.70;99.90
43858;DHT22;29507;51.284;5.758;2023-06-14T05:04:25;15.80;99.90
43858;DHT22;29507;51.284;5.758;2023-06-14T05:06:52;15.80;99.90
43858;DHT22;29507;51.284;5.758;2023-06-14T05:09:20;15.90;99.90
43858;DHT22;29507;51.284;5.758;2023-06-14T05:11:46;16.00;99.90
43858;DHT22;29507;51.284;5.758;2023-06-14T05:14:13;16.10;99.90
43858;DHT22;29507;51.284;5.758;2023-06-14T05:16:39;16.10;99.90
43858;DHT22;29507;51.284;5.758;2023-06-14T05:19:06;16.30;99.90
43858;DHT22;29507;51.284;5.758;2023-06-14T05:21:31;16.30;99.90
43858;DHT22;29507;51.284;5.758;2023-06-14T05:23:59;16.40;99.90
43858;DHT22;29507;51.284;5.758;2023-06-14T05:26:25;16.50;99.90
43858;DHT22;29507;51.284;5.758;2023-06-14T05:28:54;16.60;99.90
43858;DHT22;29507;51.284;5.758;2023-06-14T05:31:24;16.70;99.90
43858;DHT22;29507;51.284;5.758;2023-06-14T05:33:51;16.90;99.90
43858;DHT22;29507;51.284;5.758;2023-06-14T05:36:17;17.20;99.90
43858;DHT22;29507;51.284;5.758;2023-06-14T05:38:44;18.20;97.70
43858;DHT22;29507;51.284;5.758;2023-06-14T05:41:10;19.00;94.80
43858;DHT22;29507;51.284;5.758;2023-06-14T05:43:36;19.90;92.80
43858;DHT22;29507;51.284;5.758;2023-06-14T05:46:01;20.40;90.80
43858;DHT22;29507;51.284;5.758;2023-06-14T05:48:28;20.70;90.00
43858;DHT22;29507;51.284;5.758;2023-06-14T05:50:54;21.00;86.70
43858;DHT22;29507;51.284;5.758;2023-06-14T05:53:19;21.30;85.40
43858;DHT22;29507;51.284;5.758;2023-06-14T05:55:45;21.50;83.10
43858;DHT22;29507;51.284;5.758;2023-06-14T05:58:10;21.90;82.10
43858;DHT22;29507;51.284;5.758;2023-06-14T06:00:36;22.20;79.90
43858;DHT22;29507;51.284;5.758;2023-06-14T06:03:02;22.60;79.20
43858;DHT22;29507;51.284;5.758;2023-06-14T06:05:27;22.80;77.70
43858;DHT22;29507;51.284;5.758;2023-06-14T06:07:53;23.20;76.60
43858;DHT22;29507;51.284;5.758;2023-06-14T06:10:18;23.30;74.40
43858;DHT22;29507;51.284;5.758;2023-06-14T06:12:44;23.20;73.90
43858;DHT22;29507;51.284;5.758;2023-06-14T06:15:10;23.20;74.20
43858;DHT22;29507;51.284;5.758;2023-06-14T06:17:38;23.60;73.10
43858;DHT22;29507;51.284;5.758;2023-06-14T06:20:05;24.10;70.20
43858;DHT22;29507;51.284;5.758;2023-06-14T06:22:33;24.10;69.60
43858;DHT22;29507;51.284;5.758;2023-06-14T06:24:59;24.30;69.90
43858;DHT22;29507;51.284;5.758;2023-06-14T06:27:25;24.70;68.50
43858;DHT22;29507;51.284;5.758;2023-06-14T06:29:51;24.70;67.70
43858;DHT22;29507;51.284;5.758;2023-06-14T06:32:17;24.50;67.20
43858;DHT22;29507;51.284;5.758;2023-06-14T06:34:43;24.30;66.90
43858;DHT22;29507;51.284;5.758;2023-06-14T06:37:08;24.20;67.80
43858;DHT22;29507;51.284;5.758;2023-06-14T06:39:34;24.30;66.90
43858;DHT22;29507;51.284;5.758;2023-06-14T06:42:00;24.30;66.50
43858;DHT22;29507;51.284;5.758;2023-06-14T06:44:26;24.30;66.80
43858;DHT22;29507;51.284;5.758;2023-06-14T06:46:51;24.50;65.50
43858;DHT22;29507;51.284;5.758;2023-06-14T06:49:20;24.60;65.50
43858;DHT22;29507;51.284;5.758;2023-06-14T06:51:59;24.80;64.60
43858;DHT22;29507;51.284;5.758;2023-06-14T06:54:26;24.90;64.70
43858;DHT22;29507;51.284;5.758;2023-06-14T06:56:51;25.00;64.00
43858;DHT22;29507;51.284;5.758;2023-06-14T06:59:17;25.30;63.80
43858;DHT22;29507;51.284;5.758;2023-06-14T07:01:43;25.70;63.40
43858;DHT22;29507;51.284;5.758;2023-06-14T07:04:08;25.70;62.90
43858;DHT22;29507;51.284;5.758;2023-06-14T07:06:34;25.60;62.20
43858;DHT22;29507;51.284;5.758;2023-06-14T07:08:59;25.60;63.10
43858;DHT22;29507;51.284;5.758;2023-06-14T07:11:27;26.00;61.00
43858;DHT22;29507;51.284;5.758;2023-06-14T07:13:52;25.90;61.30
43858;DHT22;29507;51.284;5.758;2023-06-14T07:16:18;26.00;60.30
43858;DHT22;29507;51.284;5.758;2023-06-14T07:18:44;25.90;60.00
43858;DHT22;29507;51.284;5.758;2023-06-14T07:21:09;26.00;59.80
43858;DHT22;29507;51.284;5.758;2023-06-14T07:23:35;26.10;59.70
43858;DHT22;29507;51.284;5.758;2023-06-14T07:26:01;26.10;59.40
43858;DHT22;29507;51.284;5.758;2023-06-14T07:28:26;26.20;60.00
43858;DHT22;29507;51.284;5.758;2023-06-14T07:30:52;26.60;59.50
43858;DHT22;29507;51.284;5.758;2023-06-14T07:33:18;26.80;58.60
43858;DHT22;29507;51.284;5.758;2023-06-14T07:35:43;26.80;58.80
43858;DHT22;29507;51.284;5.758;2023-06-14T07:38:09;26.70;58.60
43858;DHT22;29507;51.284;5.758;2023-06-14T07:40:35;26.80;58.40
43858;DHT22;29507;51.284;5.758;2023-06-14T07:43:00;26.70;58.10
43858;DHT22;29507;51.284;5.758;2023-06-14T07:45:27;26.60;58.00
43858;DHT22;29507;51.284;5.758;2023-06-14T07:47:53;26.60;58.00
43858;DHT22;29507;51.284;5.758;2023-06-14T07:50:18;26.60;57.90
43858;DHT22;29507;51.284;5.758;2023-06-14T07:52:45;26.60;57.80
43858;DHT22;29507;51.284;5.758;2023-06-14T07:55:10;26.90;57.70
43858;DHT22;29507;51.284;5.758;2023-06-14T07:57:36;26.90;57.10
43858;DHT22;29507;51.284;5.758;2023-06-14T08:00:02;27.00;56.70
43858;DHT22;29507;51.284;5.758;2023-06-14T08:02:31;27.00;57.40
43858;DHT22;29507;51.284;5.758;2023-06-14T08:04:57;27.30;57.50
43858;DHT22;29507;51.284;5.758;2023-06-14T08:07:24;27.40;57.40
43858;DHT22;29507;51.284;5.758;2023-06-14T08:09:50;27.70;57.30
43858;DHT22;29507;51.284;5.758;2023-06-14T08:12:15;27.70;56.40
43858;DHT22;29507;51.284;5.758;2023-06-14T08:14:42;27.80;56.70
43858;DHT22;29507;51.284;5.758;2023-06-14T08:17:08;27.80;55.90
43858;DHT22;29507;51.284;5.758;2023-06-14T08:19:33;27.80;56.10
43858;DHT22;29507;51.284;5.758;2023-06-14T08:21:59;27.90;55.90
43858;DHT22;29507;51.284;5.758;2023-06-14T08:24:25;28.00;55.10
43858;DHT22;29507;51.284;5.758;2023-06-14T08:26:55;27.80;54.90
43858;DHT22;29507;51.284;5.758;2023-06-14T08:29:22;27.80;54.70
43858;DHT22;29507;51.284;5.758;2023-06-14T08:31:47;27.80;55.00
43858;DHT22;29507;51.284;5.758;2023-06-14T08:34:13;27.90;54.90
43858;DHT22;29507;51.284;5.758;2023-06-14T08:36:39;27.90;54.60
43858;DHT22;29507;51.284;5.758;2023-06-14T08:39:05;28.10;54.50
43858;DHT22;29507;51.284;5.758;2023-06-14T08:41:31;28.10;53.90
43858;DHT22;29507;51.284;5.758;2023-06-14T08:43:56;28.30;53.90
43858;DHT22;29507;51.284;5.758;2023-06-14T08:46:25;28.50;54.20
43858;DHT22;29507;51.284;5.758;2023-06-14T08:48:52;28.60;53.80
43858;DHT22;29507;51.284;5.758;2023-06-14T08:51:20;28.70;53.20
43858;DHT22;29507;51.284;5.758;2023-06-14T08:53:55;28.60;54.10
43858;DHT22;29507;51.284;5.758;2023-06-14T08:56:27;28.60;52.90
43858;DHT22;29507;51.284;5.758;2023-06-14T08:58:57;28.90;52.60
43858;DHT22;29507;51.284;5.758;2023-06-14T09:01:23;29.20;52.70
43858;DHT22;29507;51.284;5.758;2023-06-14T09:03:50;29.20;50.40
43858;DHT22;29507;51.284;5.758;2023-06-14T09:06:16;29.10;50.60
43858;DHT22;29507;51.284;5.758;2023-06-14T09:08:43;29.10;51.10
43858;DHT22;29507;51.284;5.758;2023-06-14T09:11:12;29.20;50.80
43858;DHT22;29507;51.284;5.758;2023-06-14T09:13:41;29.20;49.50
43858;DHT22;29507;51.284;5.758;2023-06-14T09:16:08;29.30;49.70
43858;DHT22;29507;51.284;5.758;2023-06-14T09:18:37;29.20;48.30
43858;DHT22;29507;51.284;5.758;2023-06-14T09:21:05;29.30;48.50
43858;DHT22;29507;51.284;5.758;2023-06-14T09:23:36;29.40;49.40
43858;DHT22;29507;51.284;5.758;2023-06-14T09:26:07;29.50;47.00
43858;DHT22;29507;51.284;5.758;2023-06-14T09:28:32;29.60;47.90
43858;DHT22;29507;51.284;5.758;2023-06-14T09:30:58;29.70;46.70
43858;DHT22;29507;51.284;5.758;2023-06-14T09:33:25;29.50;46.60
43858;DHT22;29507;51.284;5.758;2023-06-14T09:35:51;29.40;46.60
43858;DHT22;29507;51.284;5.758;2023-06-14T09:38:18;29.40;46.60
43858;DHT22;29507;51.284;5.758;2023-06-14T09:40:43;29.40;46.40
43858;DHT22;29507;51.284;5.758;2023-06-14T09:43:09;29.30;46.70
43858;DHT22;29507;51.284;5.758;2023-06-14T09:45:35;29.30;46.00
43858;DHT22;29507;51.284;5.758;2023-06-14T09:48:01;29.30;46.00
43858;DHT22;29507;51.284;5.758;2023-06-14T09:50:27;29.30;46.00
43858;DHT22;29507;51.284;5.758;2023-06-14T09:52:56;29.50;46.10
43858;DHT22;29507;51.284;5.758;2023-06-14T09:55:26;29.80;46.10
43858;DHT22;29507;51.284;5.758;2023-06-14T09:57:55;30.00;44.90
43858;DHT22;29507;51.284;5.758;2023-06-14T10:00:23;30.20;45.90
43858;DHT22;29507;51.284;5.758;2023-06-14T10:02:54;30.50;45.30
43858;DHT22;29507;51.284;5.758;2023-06-14T10:05:25;30.80;44.80
43858;DHT22;29507;51.284;5.758;2023-06-14T10:07:58;30.40;45.20
43858;DHT22;29507;51.284;5.758;2023-06-14T10:10:24;30.20;45.40
43858;DHT22;29507;51.284;5.758;2023-06-14T10:12:51;30.20;45.60
43858;DHT22;29507;51.284;5.758;2023-06-14T10:15:54;30.00;45.90
43858;DHT22;29507;51.284;5.758;2023-06-14T10:21:37;29.80;46.20
43858;DHT22;29507;51.284;5.758;2023-06-14T10:24:08;29.90;46.20
43858;DHT22;29507;51.284;5.758;2023-06-14T10:26:57;29.90;45.80
43858;DHT22;29507;51.284;5.758;2023-06-14T10:29:23;29.80;45.90
43858;DHT22;29507;51.284;5.758;2023-06-14T10:31:50;30.10;46.10
43858;DHT22;29507;51.284;5.758;2023-06-14T10:34:29;30.20;45.30
43858;DHT22;29507;51.284;5.758;2023-06-14T10:37:02;30.20;46.00
43858;DHT22;29507;51.284;5.758;2023-06-14T10:39:29;30.00;45.80
43858;DHT22;29507;51.284;5.758;2023-06-14T10:41:56;29.90;46.50
43858;DHT22;29507;51.284;5.758;2023-06-14T10:49:44;30.00;45.90
43858;DHT22;29507;51.284;5.758;2023-06-14T10:52:12;29.90;46.50
43858;DHT22;29507;51.284;5.758;2023-06-14T10:55:02;30.00;46.50
43858;DHT22;29507;51.284;5.758;2023-06-14T10:57:29;30.40;45.60
43858;DHT22;29507;51.284;5.758;2023-06-14T10:59:58;30.20;45.80
43858;DHT22;29507;51.284;5.758;2023-06-14T11:05:51;30.60;46.80
43858;DHT22;29507;51.284;5.758;2023-06-14T11:10:50;30.20;47.40
43858;DHT22;29507;51.284;5.758;2023-06-14T11:13:18;30.00;47.00
43858;DHT22;29507;51.284;5.758;2023-06-14T11:15:46;30.20;46.10
43858;DHT22;29507;51.284;5.758;2023-06-14T11:18:18;30.10;46.40
43858;DHT22;29507;51.284;5.758;2023-06-14T11:20:46;30.30;46.50
43858;DHT22;29507;51.284;5.758;2023-06-14T11:23:14;30.50;46.30
43858;DHT22;29507;51.284;5.758;2023-06-14T11:25:40;30.20;47.50
43858;DHT22;29507;51.284;5.758;2023-06-14T11:28:05;30.30;47.30
43858;DHT22;29507;51.284;5.758;2023-06-14T11:30:31;30.30;47.90
43858;DHT22;29507;51.284;5.758;2023-06-14T11:32:57;30.40;47.80
43858;DHT22;29507;51.284;5.758;2023-06-14T11:35:23;30.40;48.30
43858;DHT22;29507;51.284;5.758;2023-06-14T11:37:52;30.60;48.80
43858;DHT22;29507;51.284;5.758;2023-06-14T11:40:18;30.60;48.20
43858;DHT22;29507;51.284;5.758;2023-06-14T11:42:43;30.90;48.00
43858;DHT22;29507;51.284;5.758;2023-06-14T11:45:11;31.00;48.70
43858;DHT22;29507;51.284;5.758;2023-06-14T11:47:38;31.10;47.50
43858;DHT22;29507;51.284;5.758;2023-06-14T11:50:06;30.70;48.30
43858;DHT22;29507;51.284;5.758;2023-06-14T11:52:32;30.60;47.80
43858;DHT22;29507;51.284;5.758;2023-06-14T11:54:58;30.50;47.90
43858;DHT22;29507;51.284;5.758;2023-06-14T11:57:24;30.40;47.10
43858;DHT22;29507;51.284;5.758;2023-06-14T11:59:51;30.60;47.50
43858;DHT22;29507;51.284;5.758;2023-06-14T12:02:17;30.40;47.30
43858;DHT22;29507;51.284;5.758;2023-06-14T12:04:44;30.30;48.20
43858;DHT22;29507;51.284;5.758;2023-06-14T12:07:13;30.60;48.20
43858;DHT22;29507;51.284;5.758;2023-06-14T12:10:03;30.80;47.00
43858;DHT22;29507;51.284;5.758;2023-06-14T12:12:35;31.00;47.20
43858;DHT22;29507;51.284;5.758;2023-06-14T12:15:04;30.90;46.20
43858;DHT22;29507;51.284;5.758;2023-06-14T12:17:34;31.00;46.40
43858;DHT22;29507;51.284;5.758;2023-06-14T12:20:06;31.00;47.80
43858;DHT22;29507;51.284;5.758;2023-06-14T12:22:55;31.10;46.50
43858;DHT22;29507;51.284;5.758;2023-06-14T12:25:32;31.00;47.20
43858;DHT22;29507;51.284;5.758;2023-06-14T12:30:31;31.30;46.60
43858;DHT22;29507;51.284;5.758;2023-06-14T12:32:57;31.50;46.00
43858;DHT22;29507;51.284;5.758;2023-06-14T12:35:23;31.40;46.40
43858;DHT22;29507;51.284;5.758;2023-06-14T12:37:48;31.00;45.80
43858;DHT22;29507;51.284;5.758;2023-06-14T12:40:14;30.90;46.10
43858;DHT22;29507;51.284;5.758;2023-06-14T12:42:40;31.00;45.70
43858;DHT22;29507;51.284;5.758;2023-06-14T12:45:06;31.10;46.10
43858;DHT22;29507;51.284;5.758;2023-06-14T12:47:32;31.40;46.00
43858;DHT22;29507;51.284;5.758;2023-06-14T12:49:58;31.70;45.50
43858;DHT22;29507;51.284;5.758;2023-06-14T12:52:23;31.80;45.80
43858;DHT22;29507;51.284;5.758;2023-06-14T12:54:49;32.00;45.00
43858;DHT22;29507;51.284;5.758;2023-06-14T12:57:15;32.10;45.80
43858;DHT22;29507;51.284;5.758;2023-06-14T12:59:41;32.00;45.40
43858;DHT22;29507;51.284;5.758;2023-06-14T13:02:17;32.10;45.40
43858;DHT22;29507;51.284;5.758;2023-06-14T13:04:43;32.20;44.90
43858;DHT22;29507;51.284;5.758;2023-06-14T13:07:09;32.10;45.30
43858;DHT22;29507;51.284;5.758;2023-06-14T13:09:36;32.30;45.40
43858;DHT22;29507;51.284;5.758;2023-06-14T13:12:02;32.10;44.90
43858;DHT22;29507;51.284;5.758;2023-06-14T13:14:28;31.80;44.50
43858;DHT22;29507;51.284;5.758;2023-06-14T13:16:54;31.90;44.70
43858;DHT22;29507;51.284;5.758;2023-06-14T13:19:20;31.90;44.90
43858;DHT22;29507;51.284;5.758;2023-06-14T13:21:46;32.10;45.00
43858;DHT22;29507;51.284;5.758;2023-06-14T13:24:12;32.10;45.00
43858;DHT22;29507;51.284;5.758;2023-06-14T13:26:37;32.20;45.40
43858;DHT22;29507;51.284;5.758;2023-06-14T13:29:03;31.90;45.30
43858;DHT22;29507;51.284;5.758;2023-06-14T13:31:29;31.70;45.70
43858;DHT22;29507;51.284;5.758;2023-06-14T13:33:54;32.00;45.60
43858;DHT22;29507;51.284;5.758;2023-06-14T13:36:20;32.00;45.40
43858;DHT22;29507;51.284;5.758;2023-06-14T13:38:46;32.00;46.00
43858;DHT22;29507;51.284;5.758;2023-06-14T13:41:11;32.50;46.00
43858;DHT22;29507;51.284;5.758;2023-06-14T13:43:37;32.40;44.60
43858;DHT22;29507;51.284;5.758;2023-06-14T13:46:03;32.40;45.20
43858;DHT22;29507;51.284;5.758;2023-06-14T13:48:28;32.60;45.00
43858;DHT22;29507;51.284;5.758;2023-06-14T13:50:54;32.40;44.50
43858;DHT22;29507;51.284;5.758;2023-06-14T13:53:19;32.20;44.90
43858;DHT22;29507;51.284;5.758;2023-06-14T13:55:45;31.90;45.20
43858;DHT22;29507;51.284;5.758;2023-06-14T13:58:10;31.80;45.70
43858;DHT22;29507;51.284;5.758;2023-06-14T14:00:36;31.60;45.40
43858;DHT22;29507;51.284;5.758;2023-06-14T14:03:06;31.50;45.60
43858;DHT22;29507;51.284;5.758;2023-06-14T14:05:31;31.40;45.00
43858;DHT22;29507;51.284;5.758;2023-06-14T14:07:57;31.50;45.40
43858;DHT22;29507;51.284;5.758;2023-06-14T14:10:24;31.80;45.50
43858;DHT22;29507;51.284;5.758;2023-06-14T14:12:53;31.70;46.20
43858;DHT22;29507;51.284;5.758;2023-06-14T14:15:20;31.60;46.10
43858;DHT22;29507;51.284;5.758;2023-06-14T14:17:45;31.70;45.50
43858;DHT22;29507;51.284;5.758;2023-06-14T14:20:12;31.50;45.90
43858;DHT22;29507;51.284;5.758;2023-06-14T14:22:46;31.10;45.60
43858;DHT22;29507;51.284;5.758;2023-06-14T14:25:12;30.80;45.90
43858;DHT22;29507;51.284;5.758;2023-06-14T14:27:38;30.50;45.80
43858;DHT22;29507;51.284;5.758;2023-06-14T14:30:04;30.40;46.50
43858;DHT22;29507;51.284;5.758;2023-06-14T14:32:29;30.40;46.10
43858;DHT22;29507;51.284;5.758;2023-06-14T14:34:55;30.30;46.10
43858;DHT22;29507;51.284;5.758;2023-06-14T14:37:21;30.00;46.40
43858;DHT22;29507;51.284;5.758;2023-06-14T14:39:46;29.80;47.50
43858;DHT22;29507;51.284;5.758;2023-06-14T14:42:12;29.70;46.60
43858;DHT22;29507;51.284;5.758;2023-06-14T14:44:38;29.60;46.30
43858;DHT22;29507;51.284;5.758;2023-06-14T14:47:05;29.60;46.70
43858;DHT22;29507;51.284;5.758;2023-06-14T14:49:31;29.50;47.30
43858;DHT22;29507;51.284;5.758;2023-06-14T14:51:57;29.40;46.80
43858;DHT22;29507;51.284;5.758;2023-06-14T14:54:23;29.30;47.00
43858;DHT22;29507;51.284;5.758;2023-06-14T14:56:51;29.20;47.20
43858;DHT22;29507;51.284;5.758;2023-06-14T14:59:17;29.10;47.30
43858;DHT22;29507;51.284;5.758;2023-06-14T15:01:50;29.00;47.40
43858;DHT22;29507;51.284;5.758;2023-06-14T15:04:45;28.80;46.90
43858;DHT22;29507;51.284;5.758;2023-06-14T15:07:11;28.90;45.10
43858;DHT22;29507;51.284;5.758;2023-06-14T15:09:58;28.90;45.30
43858;DHT22;29507;51.284;5.758;2023-06-14T15:12:29;28.90;45.90
43858;DHT22;29507;51.284;5.758;2023-06-14T15:14:55;28.70;46.70
43858;DHT22;29507;51.284;5.758;2023-06-14T15:17:32;28.80;47.10
43858;DHT22;29507;51.284;5.758;2023-06-14T15:20:04;28.80;46.70
43858;DHT22;29507;51.284;5.758;2023-06-14T15:22:31;28.70;46.90
43858;DHT22;29507;51.284;5.758;2023-06-14T15:24:56;28.70;46.90
43858;DHT22;29507;51.284;5.758;2023-06-14T15:27:22;28.80;46.90
43858;DHT22;29507;51.284;5.758;2023-06-14T15:29:48;28.60;47.80
43858;DHT22;29507;51.284;5.758;2023-06-14T15:32:13;28.60;47.00
43858;DHT22;29507;51.284;5.758;2023-06-14T15:34:39;28.60;45.60
43858;DHT22;29507;51.284;5.758;2023-06-14T15:37:06;28.70;46.90
43858;DHT22;29507;51.284;5.758;2023-06-14T15:39:32;28.70;47.30
43858;DHT22;29507;51.284;5.758;2023-06-14T15:41:59;28.70;47.60
43858;DHT22;29507;51.284;5.758;2023-06-14T15:44:26;28.70;47.20
43858;DHT22;29507;51.284;5.758;2023-06-14T15:46:51;28.80;47.60
43858;DHT22;29507;51.284;5.758;2023-06-14T15:49:17;28.90;47.00